Time;durP1;ratioP1;P1;durP2;ratioP2;P2;SDS_P1;SDS_P2;PMS_P1;PMS_P2;Temp;Humidity;BMP_temperature;BMP_pressure;BME280_temperature;BME280_humidity;BME280_pressure;Samples;Min_cycle;Max_cycle;Signal;HPM_P1;HPM_P2
2024/03/09 07:04:18;;;;;;;8.70;3.22;;;;;;;;;;510254;27;20339;-82
2024/03/09 07:53:58;;;;;;;13.02;3.08;;;;;;;;;;4789142;29;20125;-86
2024/03/09 08:06:40;;;;;;;10.25;3.15;;;;;;;;;;4938596;24;20129;-85
2024/03/09 08:09:13;;;;;;;11.25;2.25;;;;;;;;;;4852862;29;20034;-86
2024/03/09 08:11:40;;;;;;;3.13;1.65;;;;;;;;;;4840639;29;20500;-84
2024/03/09 08:46:02;;;;;;;7.65;2.63;;;;;;;;;;4461805;23;20031;31
2024/03/09 08:48:41;;;;;;;9.85;2.55;;;;;;;;;;4824564;29;20074;-89
2024/03/09 08:53:42;;;;;;;7.40;3.00;;;;;;;;;;4829450;29;20045;-87
2024/03/09 10:00:12;;;;;;;12.48;3.42;;;;;;;;;;4792764;29;20039;-85
2024/03/09 10:02:39;;;;;;;8.43;2.33;;;;;;;;;;4806214;29;20142;-82
2024/03/09 10:05:15;;;;;;;11.50;3.22;;;;;;;;;;4822201;29;20053;-84
2024/03/09 10:08:01;;;;;;;8.73;2.83;;;;;;;;;;4819641;29;20142;-85
2024/03/09 10:16:41;;;;;;;5.80;2.47;;;;;;;;;;4856932;29;20032;-84
2024/03/09 10:19:15;;;;;;;10.02;3.60;;;;;;;;;;4831464;29;20522;-84
2024/03/09 10:22:16;;;;;;;14.98;3.47;;;;;;;;;;4843483;29;20077;-83
2024/03/09 10:25:15;;;;;;;14.80;3.35;;;;;;;;;;4848421;29;20093;-83
2024/03/09 10:30:45;;;;;;;16.05;4.30;;;;;;;;;;4832541;29;20399;-83
2024/03/09 10:35:53;;;;;;;12.02;3.97;;;;;;;;;;4477964;27;20085;-83
2024/03/09 10:38:33;;;;;;;9.15;3.38;;;;;;;;;;4831427;29;20042;-83
2024/03/09 10:46:32;;;;;;;12.25;3.78;;;;;;;;;;1652752;24;21045;-83
2024/03/09 11:06:41;;;;;;;9.07;3.42;;;;;;;;;;4853439;29;20056;-84
2024/03/09 11:16:36;;;;;;;10.02;2.92;;;;;;;;;;4799287;29;20105;-84
2024/03/09 11:19:03;;;;;;;14.02;3.90;;;;;;;;;;4768356;30;20129;-84
2024/03/09 11:21:30;;;;;;;11.90;3.47;;;;;;;;;;4850477;29;20061;-84
2024/03/09 11:23:59;;;;;;;15.63;4.22;;;;;;;;;;4847965;29;20099;-83
2024/03/09 11:26:25;;;;;;;9.43;2.60;;;;;;;;;;4839276;29;20102;-85
2024/03/09 11:28:56;;;;;;;12.63;4.18;;;;;;;;;;4843981;29;20058;-84
2024/03/09 11:31:28;;;;;;;17.15;3.92;;;;;;;;;;4849817;29;20061;-85
2024/03/09 11:34:11;;;;;;;14.25;3.83;;;;;;;;;;4853386;29;20053;-84
2024/03/09 11:36:51;;;;;;;12.10;3.72;;;;;;;;;;4851015;29;20053;-83
2024/03/09 11:39:20;;;;;;;6.63;2.42;;;;;;;;;;4856382;29;20037;-84
2024/03/09 11:41:54;;;;;;;12.05;4.03;;;;;;;;;;4838491;29;20054;-84
2024/03/09 11:44:24;;;;;;;9.20;2.58;;;;;;;;;;4842421;29;20053;-84
2024/03/09 11:46:51;;;;;;;13.30;3.15;;;;;;;;;;4843389;29;20049;-84
2024/03/09 11:49:17;;;;;;;11.05;4.05;;;;;;;;;;4854383;29;20049;-84
2024/03/09 11:51:44;;;;;;;10.27;2.08;;;;;;;;;;4848723;29;20048;-84
2024/03/09 11:54:11;;;;;;;11.80;4.47;;;;;;;;;;4849819;29;20685;-86
2024/03/09 11:56:38;;;;;;;13.35;3.70;;;;;;;;;;4841403;29;20049;-86
2024/03/09 11:59:07;;;;;;;12.65;2.90;;;;;;;;;;4838694;29;20042;-87
2024/03/09 12:01:35;;;;;;;10.63;3.13;;;;;;;;;;4841860;29;20049;-85
2024/03/09 12:04:01;;;;;;;12.57;4.63;;;;;;;;;;4840235;29;20125;-84
2024/03/09 12:06:27;;;;;;;10.23;3.55;;;;;;;;;;4840766;29;20092;-83
2024/03/09 12:08:54;;;;;;;9.23;3.53;;;;;;;;;;4856198;29;20061;-85
2024/03/09 12:11:21;;;;;;;8.75;2.92;;;;;;;;;;4837138;29;20041;-85
2024/03/09 12:13:48;;;;;;;16.42;4.47;;;;;;;;;;4838197;29;20045;-85
2024/03/09 12:16:15;;;;;;;11.20;3.17;;;;;;;;;;4853307;29;20057;-85
2024/03/09 12:18:45;;;;;;;11.40;4.22;;;;;;;;;;4845206;29;20126;-85
2024/03/09 12:21:13;;;;;;;14.25;4.35;;;;;;;;;;4831993;29;20056;-84
2024/03/09 12:23:39;;;;;;;11.15;4.05;;;;;;;;;;4835895;29;20060;-84
2024/03/09 12:26:34;;;;;;;10.18;3.10;;;;;;;;;;4853777;29;20049;-83
2024/03/09 12:32:32;;;;;;;8.65;3.13;;;;;;;;;;4823220;29;20034;-87
2024/03/09 12:38:41;;;;;;;9.90;2.63;;;;;;;;;;4859215;29;20751;-86
2024/03/09 12:41:26;;;;;;;8.80;2.08;;;;;;;;;;4768385;30;20619;-85
2024/03/09 12:43:55;;;;;;;8.93;2.97;;;;;;;;;;4841187;29;20045;-85
2024/03/09 12:46:21;;;;;;;10.95;2.75;;;;;;;;;;4838890;29;20061;-84
2024/03/09 12:48:49;;;;;;;7.47;2.97;;;;;;;;;;4837506;29;20145;-84
2024/03/09 12:51:30;;;;;;;10.57;2.83;;;;;;;;;;4857212;29;20042;-83
2024/03/09 12:57:03;;;;;;;9.30;2.95;;;;;;;;;;4830253;29;20062;-85
2024/03/09 13:02:27;;;;;;;10.45;2.78;;;;;;;;;;4819076;29;20061;-83
2024/03/09 13:05:12;;;;;;;13.25;2.97;;;;;;;;;;4812031;29;20053;-85
2024/03/09 13:08:02;;;;;;;5.07;1.60;;;;;;;;;;4811369;29;20054;-83
2024/03/09 13:53:09;;;;;;;17.33;3.65;;;;;;;;;;2558237;23;20123;-82
2024/03/09 13:55:39;;;;;;;12.38;4.03;;;;;;;;;;4832264;29;20074;-88
2024/03/09 14:32:18;;;;;;;11.20;3.47;;;;;;;;;;3248077;23;20053;-83
2024/03/09 14:34:45;;;;;;;14.05;4.65;;;;;;;;;;4852436;29;20196;-84
2024/03/09 14:53:14;;;;;;;10.27;3.65;;;;;;;;;;4432219;27;20053;-83
2024/03/09 14:55:48;;;;;;;14.60;3.70;;;;;;;;;;4820181;29;20054;-83
2024/03/09 14:58:16;;;;;;;19.30;5.00;;;;;;;;;;4832492;29;20076;-82
2024/03/09 15:03:14;;;;;;;15.93;4.22;;;;;;;;;;4839123;29;20074;-83
2024/03/09 15:15:41;;;;;;;;;;;;;;;;;;;;;
2024/03/09 15:21:01;;;;;;;12.60;3.22;;;;;;;;;;4849409;29;20061;-85
2024/03/09 15:36:03;;;;;;;;;;;;;;;;;;;;;
2024/03/09 15:42:39;;;;;;;10.75;4.03;;;;;;;;;;4842481;29;20081;-85
2024/03/09 15:51:45;;;;;;;15.75;4.28;;;;;;;;;;4798140;29;20074;-85
2024/03/09 15:54:57;;;;;;;19.27;5.00;;;;;;;;;;4780451;30;20129;-84
2024/03/09 16:01:08;;;;;;;12.32;4.50;;;;;;;;;;4726572;30;20177;-84
2024/03/09 16:03:35;;;;;;;16.53;4.63;;;;;;;;;;4881900;24;20033;-84
2024/03/09 16:09:43;;;;;;;14.73;5.47;;;;;;;;;;4817892;29;20071;-84
2024/03/09 16:25:04;;;;;;;15.82;3.60;;;;;;;;;;4844730;29;20759;-83
2024/03/09 16:28:16;;;;;;;18.80;5.00;;;;;;;;;;4849417;29;20118;-84
2024/03/09 16:30:30;;;;;;;16.38;5.97;;;;;;;;;;4837352;29;20065;-85
2024/03/09 16:32:59;;;;;;;14.52;4.95;;;;;;;;;;4839332;29;20049;-84
2024/03/09 16:35:32;;;;;;;15.38;3.92;;;;;;;;;;4854903;29;20052;-83
2024/03/09 16:38:00;;;;;;;;;;;;;;;;;;4831185;29;20176;-83
2024/03/09 16:40:30;;;;;;;14.65;5.50;;;;;;;;;;4845572;29;19916;-84
2024/03/09 16:42:56;;;;;;;21.90;5.00;;;;;;;;;;4832591;29;20082;-85
2024/03/09 16:45:23;;;;;;;13.88;5.57;;;;;;;;;;4860341;29;20073;-84
2024/03/09 16:47:49;;;;;;;14.68;4.70;;;;;;;;;;4860779;29;20042;-84
2024/03/09 16:50:18;;;;;;;15.88;4.50;;;;;;;;;;4840928;29;20041;-82
2024/03/09 16:52:49;;;;;;;16.42;5.28;;;;;;;;;;4853044;29;20062;-84
2024/03/09 16:55:15;;;;;;;21.63;6.22;;;;;;;;;;4844511;29;20042;-82
2024/03/09 16:57:43;;;;;;;16.70;4.70;;;;;;;;;;4843176;29;20038;-84
2024/03/09 17:00:20;;;;;;;;;;;;;;;;;;;;;
2024/03/09 17:27:07;;;;;;;23.65;5.70;;;;;;;;;;3001136;24;21064;-85
2024/03/09 17:29:35;;;;;;;15.48;4.80;;;;;;;;;;4817689;29;20089;-84
2024/03/09 17:32:02;;;;;;;16.00;5.43;;;;;;;;;;4806381;29;20049;-82
2024/03/09 17:34:28;;;;;;;13.98;4.28;;;;;;;;;;4814964;29;20046;-83
2024/03/09 17:36:54;;;;;;;19.50;5.03;;;;;;;;;;4819863;29;20130;-84
2024/03/09 17:39:22;;;;;;;14.55;4.38;;;;;;;;;;4807133;29;20039;-84
2024/03/09 17:41:52;;;;;;;19.90;6.15;;;;;;;;;;4811596;29;20050;-84
2024/03/09 17:44:24;;;;;;;17.90;5.10;;;;;;;;;;4817697;29;20101;-82
2024/03/09 17:46:50;;;;;;;16.70;5.10;;;;;;;;;;4809902;29;20046;-82
2024/03/09 17:49:16;;;;;;;22.30;6.40;;;;;;;;;;4813245;29;20042;-84
2024/03/09 18:04:50;;;;;;;;;;;;;;;;;;;;;
2024/03/09 18:09:53;;;;;;;19.10;8.20;;;;;;;;;;4841596;29;20136;-82
2024/03/09 18:15:42;;;;;;;27.60;6.85;;;;;;;;;;4810705;29;20046;-83
2024/03/09 18:18:31;;;;;;;;;;;;;;;;;;;;;
2024/03/09 18:34:18;;;;;;;20.10;5.78;;;;;;;;;;4829339;27;20058;-82
2024/03/09 18:37:13;;;;;;;18.80;6.15;;;;;;;;;;4819976;29;20045;-83
2024/03/09 18:45:12;;;;;;;27.17;8.40;;;;;;;;;;4851101;24;20050;-83
2024/03/09 18:48:12;;;;;;;;;;;;;;;;;;4798082;29;20082;-84
2024/03/09 18:53:27;;;;;;;26.17;6.28;;;;;;;;;;5717684;24;20033;-82
2024/03/09 18:57:03;;;;;;;;;;;;;;;;;;;;;
2024/03/09 19:02:57;;;;;;;25.67;5.72;;;;;;;;;;4751515;30;20424;-84
2024/03/09 19:06:03;;;;;;;;;;;;;;;;;;;;;
2024/03/09 19:15:05;;;;;;;;;;;;;;;;;;;;;
2024/03/09 19:17:35;;;;;;;14.88;6.35;;;;;;;;;;4852312;24;20131;-82
2024/03/09 19:20:02;;;;;;;20.50;6.60;;;;;;;;;;4834040;29;20099;-82
2024/03/09 19:22:30;;;;;;;14.63;4.90;;;;;;;;;;4824945;29;20061;-83
2024/03/09 19:25:11;;;;;;;13.77;3.80;;;;;;;;;;4839966;29;20102;-84
2024/03/09 19:27:51;;;;;;;;;;;;;;;;;;;;;
2024/03/09 19:30:56;;;;;;;21.25;6.50;;;;;;;;;;4838464;29;20027;-84
2024/03/09 20:04:54;;;;;;;14.75;5.63;;;;;;;;;;4853753;29;20190;-83
2024/03/09 20:07:48;;;;;;;;;;;;;;;;;;;;;
2024/03/09 20:10:46;;;;;;;15.70;3.65;;;;;;;;;;4853123;29;20037;-83
2024/03/09 20:13:26;;;;;;;17.08;8.18;;;;;;;;;;4842871;29;20128;-84
2024/03/09 20:15:53;;;;;;;13.93;5.28;;;;;;;;;;4844757;29;20092;-84
2024/03/09 20:18:20;;;;;;;14.27;5.55;;;;;;;;;;4837279;29;20038;-84
2024/03/09 20:20:46;;;;;;;18.48;5.63;;;;;;;;;;4834482;29;20042;-84
2024/03/09 20:23:13;;;;;;;17.23;4.55;;;;;;;;;;4838071;29;20041;-83
2024/03/09 20:25:39;;;;;;;17.70;5.75;;;;;;;;;;4850280;29;20046;-82
2024/03/09 20:28:07;;;;;;;16.13;5.32;;;;;;;;;;4830981;29;20077;-84
2024/03/09 20:30:57;;;;;;;;;;;;;;;;;;;;;
2024/03/09 20:33:26;;;;;;;13.63;5.22;;;;;;;;;;4854250;29;20771;-83
2024/03/09 20:36:08;;;;;;;16.25;6.03;;;;;;;;;;4842796;29;20042;-83
2024/03/09 20:38:48;;;;;;;14.52;5.10;;;;;;;;;;4840308;29;20503;-83
2024/03/09 20:41:16;;;;;;;13.18;4.78;;;;;;;;;;4841963;29;20208;-83
2024/03/09 20:43:48;;;;;;;12.77;5.65;;;;;;;;;;4840193;29;20046;-85
2024/03/09 20:46:15;;;;;;;14.07;5.43;;;;;;;;;;4854734;29;20117;-83
2024/03/09 20:52:03;;;;;;;12.90;4.78;;;;;;;;;;4844303;29;20654;-84
2024/03/09 20:54:54;;;;;;;8.50;2.80;;;;;;;;;;4845276;29;20085;-83
2024/03/09 20:57:25;;;;;;;14.20;4.18;;;;;;;;;;4857018;29;20052;-84
2024/03/09 21:00:00;;;;;;;17.75;4.80;;;;;;;;;;4834351;29;20141;-83
2024/03/09 21:02:28;;;;;;;13.60;5.63;;;;;;;;;;4839536;29;20070;-83
2024/03/09 21:05:20;;;;;;;27.40;9.35;;;;;;;;;;4840888;29;20866;-84
2024/03/09 21:08:07;;;;;;;39.42;5.75;;;;;;;;;;4829401;29;20760;-84
2024/03/09 21:11:03;;;;;;;20.05;6.72;;;;;;;;;;4841733;29;20069;-84
2024/03/09 21:13:32;;;;;;;15.82;4.68;;;;;;;;;;4847295;29;20067;-84
2024/03/09 21:16:09;;;;;;;18.00;4.72;;;;;;;;;;4833623;29;20515;-84
2024/03/09 21:19:15;;;;;;;9.68;3.38;;;;;;;;;;4844900;29;20041;-84
2024/03/09 21:21:48;;;;;;;17.92;4.75;;;;;;;;;;4819885;29;20092;-84
2024/03/09 21:24:40;;;;;;;13.32;5.72;;;;;;;;;;4835822;29;20045;-84
2024/03/09 21:27:32;;;;;;;15.35;4.43;;;;;;;;;;4808188;29;20056;-84
2024/03/09 21:30:04;;;;;;;20.88;5.72;;;;;;;;;;4798991;29;20057;-84
2024/03/09 21:32:30;;;;;;;24.80;6.37;;;;;;;;;;4820793;29;20698;-84
2024/03/09 21:35:01;;;;;;;18.35;6.72;;;;;;;;;;4820792;29;20053;-84
2024/03/09 21:37:37;;;;;;;19.30;5.03;;;;;;;;;;4834724;29;20428;-84
2024/03/09 21:40:11;;;;;;;14.80;5.45;;;;;;;;;;4821171;29;20200;-83
2024/03/09 21:42:38;;;;;;;11.88;3.60;;;;;;;;;;4822478;29;20060;-83
2024/03/09 21:45:07;;;;;;;15.55;5.57;;;;;;;;;;4825002;29;20043;-84
2024/03/09 21:47:35;;;;;;;16.67;6.40;;;;;;;;;;4832299;29;20068;-84
2024/03/09 21:50:02;;;;;;;13.30;5.00;;;;;;;;;;4815506;29;20053;-84
2024/03/09 21:52:29;;;;;;;15.80;5.45;;;;;;;;;;4818032;29;20050;-83
2024/03/09 21:55:20;;;;;;;13.85;5.13;;;;;;;;;;4823348;29;20042;-84
2024/03/09 21:58:18;;;;;;;23.17;5.95;;;;;;;;;;4833417;29;20041;-84
2024/03/09 22:00:54;;;;;;;20.45;5.13;;;;;;;;;;4837828;29;20042;-84
2024/03/09 22:03:28;;;;;;;12.52;4.85;;;;;;;;;;4815173;29;20054;-83
2024/03/09 22:06:29;;;;;;;19.67;5.95;;;;;;;;;;4768988;29;20048;-84
2024/03/09 22:09:12;;;;;;;20.00;7.43;;;;;;;;;;4801769;29;20080;-83
2024/03/09 22:12:08;;;;;;;19.40;6.60;;;;;;;;;;4835446;29;20107;-84
2024/03/09 22:14:42;;;;;;;16.02;4.93;;;;;;;;;;4845157;29;20477;-83
2024/03/09 22:20:15;;;;;;;17.27;5.07;;;;;;;;;;4817109;29;20085;-83
2024/03/09 22:23:20;;;;;;;16.25;5.70;;;;;;;;;;4829558;29;20082;-84
2024/03/09 22:28:52;;;;;;;15.93;5.45;;;;;;;;;;4854428;29;20053;-83
2024/03/09 22:31:30;;;;;;;10.68;4.35;;;;;;;;;;4833543;29;20073;-84
2024/03/09 22:34:00;;;;;;;15.50;4.07;;;;;;;;;;4839907;29;20851;-83
2024/03/09 22:36:34;;;;;;;17.23;5.90;;;;;;;;;;4839336;29;20038;-84
2024/03/09 22:39:04;;;;;;;12.88;4.43;;;;;;;;;;4843701;29;20045;-83
2024/03/09 22:41:36;;;;;;;12.40;4.28;;;;;;;;;;4831036;29;20053;-84
2024/03/09 22:44:07;;;;;;;14.30;5.32;;;;;;;;;;4837699;29;20056;-83
2024/03/09 22:46:41;;;;;;;13.13;4.83;;;;;;;;;;4842570;29;20038;-84
2024/03/09 22:49:10;;;;;;;12.13;4.97;;;;;;;;;;4825883;29;20052;-83
2024/03/09 22:51:46;;;;;;;11.95;5.28;;;;;;;;;;4844867;29;20046;-84
2024/03/09 22:54:26;;;;;;;11.10;4.97;;;;;;;;;;4832999;29;20067;-84
2024/03/09 22:57:00;;;;;;;18.83;6.28;;;;;;;;;;4852660;29;20469;-83
2024/03/09 22:59:43;;;;;;;15.13;5.65;;;;;;;;;;4834570;29;20060;-83
2024/03/09 23:02:12;;;;;;;;;;;;;;;;;;4839844;29;20042;-84
2024/03/09 23:04:47;;;;;;;15.52;4.25;;;;;;;;;;4843456;29;19962;-84
2024/03/09 23:10:27;;;;;;;17.02;5.07;;;;;;;;;;4851011;29;20064;-84
2024/03/09 23:12:55;;;;;;;16.25;5.60;;;;;;;;;;4828055;29;20549;-84
2024/03/09 23:15:35;;;;;;;21.23;6.20;;;;;;;;;;4860104;29;20436;-84
2024/03/09 23:18:36;;;;;;;15.68;5.18;;;;;;;;;;4836478;29;20046;-84
2024/03/09 23:21:07;;;;;;;21.08;6.55;;;;;;;;;;4810064;29;20049;-83
2024/03/09 23:23:55;;;;;;;17.33;6.18;;;;;;;;;;4830003;29;20049;-83
2024/03/09 23:26:27;;;;;;;22.20;7.47;;;;;;;;;;4835857;29;20053;-84
2024/03/09 23:28:55;;;;;;;26.15;6.97;;;;;;;;;;4844581;29;20508;-84
2024/03/09 23:31:27;;;;;;;25.17;6.35;;;;;;;;;;4841220;29;20108;-84
2024/03/09 23:33:58;;;;;;;25.60;6.43;;;;;;;;;;4856323;29;20057;-84
2024/03/09 23:36:29;;;;;;;23.85;6.05;;;;;;;;;;4859214;29;20041;-84
2024/03/09 23:38:58;;;;;;;17.77;5.13;;;;;;;;;;4840645;29;20060;-84
2024/03/09 23:41:26;;;;;;;18.30;5.25;;;;;;;;;;4836473;29;20038;-84
2024/03/09 23:44:13;;;;;;;13.95;5.40;;;;;;;;;;4839447;29;20145;-84
2024/03/09 23:46:39;;;;;;;15.40;4.03;;;;;;;;;;4831064;29;20389;-84
2024/03/09 23:52:15;;;;;;;16.52;6.95;;;;;;;;;;4840219;29;20128;-83
2024/03/09 23:54:49;;;;;;;14.38;5.45;;;;;;;;;;4842427;29;20046;-84
2024/03/09 23:57:22;;;;;;;20.25;6.95;;;;;;;;;;4839464;29;20038;-84
2024/03/09 23:59:54;;;;;;;17.20;5.47;;;;;;;;;;4829391;29;20041;-83
